Terminal Aerodrome Forecast
Issued by NWS

Home | Current Version | Previous Version | Text Only | Print | Product List | Glossary On
Versions: 1 2 3 4 5 6 7 8 9 10 11 12 13 14 15 16
000
FTUS42 KMLB 270239 AAA
TAFSUA
TAF AMD
KSUA 270239Z 2703/2724 08012KT P6SM SCT025 BKN040
     FM270600 11006KT P6SM SKC
     FM271300 09012KT P6SM SCT035
     FM271700 09017G23KT P6SM SCT030 BKN250=

USA.gov is the U.S. government's official web portal to all federal, state and local government web resources and services.